Time;durP1;ratioP1;P1;durP2;ratioP2;P2;SDS_P1;SDS_P2;PMS_P1;PMS_P2;Temp;Humidity;BMP_temperature;BMP_pressure;BME280_temperature;BME280_humidity;BME280_pressure;Samples;Min_cycle;Max_cycle;Signal;HPM_P1;HPM_P2
2022/01/17 00:02:12;;;;;;;70.97;22.47;;;;;6.50;102316.00;;;;5058579;28;20618;-67
2022/01/17 00:04:59;;;;;;;57.40;21.37;;;;;6.50;102318.00;;;;5057972;28;20232;-72
2022/01/17 00:07:46;;;;;;;60.67;21.97;;;;;6.50;102317.00;;;;5064018;28;20232;-72
2022/01/17 00:10:32;;;;;;;64.53;22.13;;;;;6.50;102322.00;;;;5056115;28;20310;-72
2022/01/17 00:13:25;;;;;;;55.43;21.27;;;;;6.60;102324.00;;;;5059008;28;20806;-71
2022/01/17 00:16:14;;;;;;;53.00;20.73;;;;;6.40;102324.00;;;;5055189;28;20248;-71
2022/01/17 00:19:30;;;;;;;57.77;20.83;;;;;6.50;102321.00;;;;5063236;28;20298;-70
2022/01/17 00:22:19;;;;;;;53.73;20.20;;;;;6.30;102301.00;;;;5056635;28;20243;-70
2022/01/17 00:25:07;;;;;;;58.40;19.57;;;;;6.50;102299.00;;;;5056436;28;20302;-70
2022/01/17 00:27:53;;;;;;;51.03;19.67;;;;;6.30;102301.00;;;;5075230;28;20298;-70
2022/01/17 00:30:41;;;;;;;51.83;20.80;;;;;6.60;102294.00;;;;5067835;28;20313;-70
2022/01/17 00:33:27;;;;;;;56.90;19.17;;;;;6.40;102298.00;;;;5065841;28;20255;-74
2022/01/17 00:36:13;;;;;;;51.87;19.53;;;;;6.50;102299.00;;;;5067626;28;20293;-72
2022/01/17 00:38:59;;;;;;;55.00;20.67;;;;;6.50;102293.00;;;;5062381;28;20301;-70
2022/01/17 00:41:46;;;;;;;51.07;19.37;;;;;6.50;102294.00;;;;5067528;28;20714;-70
2022/01/17 00:44:32;;;;;;;57.53;19.97;;;;;6.50;102295.00;;;;5067667;28;20815;-70
2022/01/17 00:47:20;;;;;;;58.63;19.70;;;;;6.40;102305.00;;;;5067771;28;20228;-70
2022/01/17 00:50:07;;;;;;;51.77;19.73;;;;;6.40;102307.00;;;;5067875;28;20223;-70
2022/01/17 00:52:54;;;;;;;54.60;19.70;;;;;6.30;102307.00;;;;5066683;28;20709;-71
2022/01/17 00:55:40;;;;;;;46.73;18.97;;;;;6.40;102298.00;;;;5067653;28;20699;-71
2022/01/17 00:58:26;;;;;;;48.77;19.77;;;;;6.40;102303.00;;;;5066361;28;20298;-72
2022/01/17 01:01:13;;;;;;;49.93;19.60;;;;;6.40;102287.00;;;;5067535;28;20719;-70
2022/01/17 01:04:00;;;;;;;56.77;19.37;;;;;6.50;102304.00;;;;5063734;28;20228;-71
2022/01/17 01:06:47;;;;;;;43.60;18.87;;;;;6.50;102311.00;;;;5066776;28;20232;-71
2022/01/17 01:09:40;;;;;;;50.97;18.97;;;;;6.50;102301.00;;;;5060657;28;20235;-71
2022/01/17 01:12:27;;;;;;;50.83;18.77;;;;;6.40;102305.00;;;;5055593;28;20998;-70
2022/01/17 01:15:19;;;;;;;57.60;18.70;;;;;6.60;102287.00;;;;5051748;28;20431;-71
2022/01/17 01:18:14;;;;;;;47.07;17.93;;;;;6.40;102310.00;;;;5057084;28;20276;-69
2022/01/17 01:21:24;;;;;;;49.83;16.80;;;;;6.40;102316.00;;;;5056800;28;20224;-70
2022/01/17 01:30:20;;;;;;;37.53;14.23;;;;;6.40;102332.00;;;;5068103;28;20232;-72
2022/01/17 01:33:06;;;;;;;36.47;14.37;;;;;6.30;102348.00;;;;5067255;28;20235;-70
2022/01/17 01:35:59;;;;;;;32.57;11.97;;;;;6.40;102346.00;;;;5060345;28;20351;-71
2022/01/17 01:38:47;;;;;;;36.83;12.67;;;;;6.30;102336.00;;;;5064937;28;20731;-71
2022/01/17 01:41:41;;;;;;;28.87;11.63;;;;;6.30;102329.00;;;;5059258;28;20224;-69
2022/01/17 01:44:28;;;;;;;25.77;10.73;;;;;6.20;102320.00;;;;5073745;28;20274;-69
2022/01/17 01:47:14;;;;;;;27.27;11.30;;;;;6.20;102322.00;;;;5066677;28;20361;-69
2022/01/17 01:50:01;;;;;;;26.53;10.40;;;;;6.10;102317.00;;;;5063170;28;20294;-72
2022/01/17 01:52:47;;;;;;;32.07;11.23;;;;;6.20;102322.00;;;;5058652;28;20224;-68
2022/01/17 01:55:35;;;;;;;31.60;11.10;;;;;6.20;102326.00;;;;5065448;28;20232;-70
2022/01/17 01:58:23;;;;;;;28.33;10.90;;;;;6.10;102333.00;;;;5066190;28;20654;-73
2022/01/17 02:01:09;;;;;;;37.20;11.73;;;;;6.20;102343.00;;;;5066468;28;20251;-70
2022/01/17 02:03:56;;;;;;;24.50;10.57;;;;;6.30;102337.00;;;;5065871;28;20298;-72
2022/01/17 02:06:43;;;;;;;23.37;10.03;;;;;6.20;102330.00;;;;5066230;28;20223;-72
2022/01/17 02:09:29;;;;;;;20.57;8.97;;;;;6.30;102338.00;;;;5066382;28;20773;-70
2022/01/17 02:12:21;;;;;;;23.03;10.27;;;;;6.20;102345.00;;;;5065531;28;20766;-71
2022/01/17 02:15:12;;;;;;;21.23;8.37;;;;;6.20;102326.00;;;;5055096;28;20838;-68
2022/01/17 02:17:58;;;;;;;18.07;7.97;;;;;6.20;102333.00;;;;5060213;28;20232;-70
2022/01/17 02:21:09;;;;;;;19.50;7.90;;;;;6.10;102345.00;;;;5063075;28;20350;-70
2022/01/17 02:23:53;;;;;;;26.07;7.37;;;;;6.00;102339.00;;;;5061344;28;20298;-71
2022/01/17 02:26:39;;;;;;;17.17;7.27;;;;;6.00;102340.00;;;;5066484;28;20223;-71
2022/01/17 02:29:26;;;;;;;18.97;7.07;;;;;6.00;102330.00;;;;5065883;28;20232;-73
2022/01/17 02:32:12;;;;;;;20.07;6.80;;;;;6.00;102329.00;;;;5065484;28;20813;-71
2022/01/17 02:35:12;;;;;;;15.87;6.53;;;;;6.00;102332.00;;;;5060306;28;20698;-70
2022/01/17 02:37:59;;;;;;;20.30;6.60;;;;;6.00;102313.00;;;;5064560;28;20325;-73
2022/01/17 02:40:46;;;;;;;21.83;8.53;;;;;6.00;102326.00;;;;5059740;28;20231;-71
2022/01/17 02:43:32;;;;;;;26.87;10.37;;;;;6.10;102312.00;;;;5064853;28;20236;-72
2022/01/17 02:46:28;;;;;;;28.10;11.77;;;;;6.10;102326.00;;;;5065964;28;20689;-72
2022/01/17 02:49:14;;;;;;;27.07;12.57;;;;;6.10;102310.00;;;;5066029;28;20223;-71
2022/01/17 02:52:00;;;;;;;32.63;12.60;;;;;6.10;102312.00;;;;5060045;28;20268;-72
2022/01/17 02:54:48;;;;;;;39.27;12.97;;;;;6.00;102323.00;;;;5062338;28;20756;-71
2022/01/17 02:57:34;;;;;;;31.37;12.93;;;;;6.10;102311.00;;;;5066282;28;20454;-71
2022/01/17 03:00:21;;;;;;;30.50;13.50;;;;;6.10;102317.00;;;;5062828;28;20303;-70
2022/01/17 03:03:09;;;;;;;35.63;14.50;;;;;6.10;102310.00;;;;5066194;28;20583;-73
2022/01/17 03:05:57;;;;;;;29.27;13.03;;;;;6.00;102322.00;;;;5059558;28;20220;-70
2022/01/17 03:08:44;;;;;;;30.67;13.00;;;;;6.00;102317.00;;;;5065042;28;20234;-67
2022/01/17 03:11:32;;;;;;;34.90;14.10;;;;;6.00;102319.00;;;;5065493;28;20729;-71
2022/01/17 03:14:19;;;;;;;34.50;14.70;;;;;6.00;102305.00;;;;5065718;28;20973;-69
2022/01/17 03:17:05;;;;;;;39.27;15.20;;;;;6.20;102309.00;;;;5065459;28;20746;-70
2022/01/17 03:19:51;;;;;;;38.67;15.27;;;;;6.10;102309.00;;;;5063080;28;20235;-71
2022/01/17 03:22:39;;;;;;;45.27;16.50;;;;;6.00;102312.00;;;;5069436;28;20294;-71
2022/01/17 03:25:26;;;;;;;41.07;16.00;;;;;5.90;102309.00;;;;5067244;28;20227;-69
2022/01/17 03:28:13;;;;;;;48.83;16.33;;;;;6.00;102314.00;;;;5069438;28;20282;-73
2022/01/17 03:31:02;;;;;;;47.20;18.70;;;;;5.90;102312.00;;;;5062974;28;20231;-71
2022/01/17 03:33:48;;;;;;;41.03;16.63;;;;;5.80;102310.00;;;;5062390;28;20231;-70
2022/01/17 03:36:34;;;;;;;46.13;17.47;;;;;6.00;102320.00;;;;5069589;28;20223;-71
2022/01/17 03:39:21;;;;;;;38.07;16.13;;;;;6.00;102333.00;;;;5069452;28;20224;-70
2022/01/17 03:42:07;;;;;;;42.90;16.30;;;;;5.80;102337.00;;;;5069233;28;20220;-71
2022/01/17 03:44:55;;;;;;;46.70;16.93;;;;;6.00;102332.00;;;;5062749;28;20228;-71
2022/01/17 03:47:44;;;;;;;41.00;16.00;;;;;6.00;102330.00;;;;5069421;28;20571;-71
2022/01/17 03:50:30;;;;;;;35.10;15.57;;;;;6.00;102333.00;;;;5067502;28;20231;-70
2022/01/17 03:53:16;;;;;;;47.20;16.80;;;;;5.90;102344.00;;;;5068814;28;20714;-72
2022/01/17 03:56:03;;;;;;;39.73;14.43;;;;;6.00;102349.00;;;;5063864;28;20223;-70
2022/01/17 03:58:50;;;;;;;35.87;14.77;;;;;6.00;102345.00;;;;5067046;28;20345;-71
2022/01/17 04:01:37;;;;;;;34.50;13.70;;;;;6.10;102332.00;;;;5068301;28;20224;-70
2022/01/17 04:04:23;;;;;;;47.37;13.90;;;;;6.20;102336.00;;;;5066335;28;20247;-71
2022/01/17 04:07:10;;;;;;;39.13;13.67;;;;;5.90;102336.00;;;;5065254;28;20232;-70
2022/01/17 04:09:56;;;;;;;32.67;11.87;;;;;5.90;102340.00;;;;5062639;28;20244;-72
2022/01/17 04:12:44;;;;;;;33.90;12.87;;;;;6.00;102337.00;;;;5067931;28;20219;-67
2022/01/17 04:15:32;;;;;;;33.37;12.00;;;;;5.90;102343.00;;;;5068870;28;20236;-70
2022/01/17 04:18:23;;;;;;;31.50;11.83;;;;;5.80;102338.00;;;;5065501;28;20287;-72
2022/01/17 04:21:09;;;;;;;25.63;9.87;;;;;5.90;102342.00;;;;5065234;28;20594;-70
2022/01/17 04:23:56;;;;;;;25.23;9.67;;;;;5.90;102342.00;;;;5062053;28;20228;-70
2022/01/17 04:26:42;;;;;;;25.27;9.20;;;;;6.00;102343.00;;;;5068462;28;20687;-71
2022/01/17 04:29:29;;;;;;;29.80;9.70;;;;;5.90;102336.00;;;;5068373;28;20250;-70
2022/01/17 04:32:15;;;;;;;29.33;8.70;;;;;5.90;102332.00;;;;5067509;28;20235;-71
2022/01/17 04:35:04;;;;;;;23.70;8.67;;;;;5.90;102328.00;;;;5057826;28;20228;-70
2022/01/17 04:37:53;;;;;;;27.67;7.90;;;;;5.90;102339.00;;;;5067942;28;20308;-70
2022/01/17 04:40:40;;;;;;;22.13;8.63;;;;;6.00;102345.00;;;;5069418;28;20231;-75
2022/01/17 04:43:44;;;;;;;22.83;7.87;;;;;5.90;102359.00;;;;5068058;28;20236;-71
2022/01/17 04:46:30;;;;;;;22.20;7.33;;;;;6.00;102349.00;;;;5066528;28;20231;-70
2022/01/17 04:49:17;;;;;;;22.83;7.43;;;;;6.10;102372.00;;;;5068029;28;20231;-70
2022/01/17 04:52:12;;;;;;;15.57;7.43;;;;;6.00;102362.00;;;;5063050;28;20267;-69
2022/01/17 04:55:01;;;;;;;18.73;7.07;;;;;6.00;102346.00;;;;5066104;28;20224;-71
2022/01/17 04:57:49;;;;;;;16.60;6.60;;;;;6.00;102357.00;;;;5061785;28;20224;-71
2022/01/17 05:00:35;;;;;;;18.93;6.57;;;;;5.90;102357.00;;;;5066815;28;20316;-70
2022/01/17 05:03:25;;;;;;;19.20;7.40;;;;;5.90;102370.00;;;;5067834;28;20232;-70
2022/01/17 05:06:12;;;;;;;19.67;7.20;;;;;5.80;102375.00;;;;5068297;28;20227;-73
2022/01/17 05:09:02;;;;;;;20.37;6.97;;;;;5.80;102370.00;;;;5068098;28;20981;-71
2022/01/17 05:11:48;;;;;;;15.97;6.73;;;;;5.80;102372.00;;;;5058930;28;20228;-70
2022/01/17 05:14:34;;;;;;;24.30;6.73;;;;;5.70;102382.00;;;;5067445;28;20294;-70
2022/01/17 05:17:37;;;;;;;16.70;6.03;;;;;5.70;102373.00;;;;5067457;28;20367;-71
2022/01/17 05:20:25;;;;;;;19.27;5.80;;;;;5.80;102378.00;;;;5065110;28;20829;-70
2022/01/17 05:23:11;;;;;;;18.70;6.73;;;;;5.80;102381.00;;;;5067617;28;20230;-71
2022/01/17 05:25:59;;;;;;;18.93;6.50;;;;;5.70;102378.00;;;;5061423;28;20227;-72
2022/01/17 05:28:45;;;;;;;12.23;5.87;;;;;5.70;102373.00;;;;5059295;28;20325;-70
2022/01/17 05:31:32;;;;;;;22.73;6.87;;;;;5.70;102382.00;;;;5066665;28;20239;-70
2022/01/17 05:34:18;;;;;;;15.23;5.97;;;;;5.80;102383.00;;;;5068431;28;20804;-70
2022/01/17 05:37:06;;;;;;;15.73;5.60;;;;;5.90;102388.00;;;;5062132;28;20273;-70
2022/01/17 05:39:52;;;;;;;17.67;6.60;;;;;6.00;102390.00;;;;5062407;28;20224;-70
2022/01/17 05:42:41;;;;;;;20.07;5.60;;;;;5.70;102395.00;;;;5066306;28;20298;-71
2022/01/17 05:45:27;;;;;;;17.13;5.97;;;;;5.70;102395.00;;;;5066431;28;20342;-72
2022/01/17 05:48:13;;;;;;;16.87;5.23;;;;;5.80;102389.00;;;;5067015;28;20722;-73
2022/01/17 05:50:59;;;;;;;18.60;6.00;;;;;5.70;102371.00;;;;5060494;28;20231;-71
2022/01/17 05:53:46;;;;;;;17.63;5.77;;;;;5.60;102366.00;;;;5066907;28;20223;-70
2022/01/17 05:56:32;;;;;;;14.77;4.67;;;;;5.60;102364.00;;;;5066674;28;20236;-70
2022/01/17 05:59:20;;;;;;;14.63;4.47;;;;;5.80;102353.00;;;;5066622;28;20236;-71
2022/01/17 06:02:06;;;;;;;14.07;4.70;;;;;5.70;102348.00;;;;5061939;28;20236;-70
2022/01/17 06:04:52;;;;;;;18.50;4.47;;;;;5.80;102354.00;;;;5062124;28;20285;-71
2022/01/17 06:07:39;;;;;;;12.53;3.80;;;;;5.80;102362.00;;;;5067143;28;20655;-69
2022/01/17 06:10:25;;;;;;;16.70;4.40;;;;;5.90;102362.00;;;;5066434;28;20228;-71
2022/01/17 06:13:11;;;;;;;12.23;4.13;;;;;5.90;102356.00;;;;5047265;28;20718;-70
2022/01/17 06:15:59;;;;;;;10.07;3.07;;;;;6.00;102372.00;;;;5061151;28;20231;-69
2022/01/17 06:18:46;;;;;;;9.23;3.17;;;;;6.00;102393.00;;;;5054358;28;20227;-70
2022/01/17 06:21:32;;;;;;;12.63;3.30;;;;;6.00;102394.00;;;;5063395;28;20231;-71
2022/01/17 06:24:19;;;;;;;16.63;3.70;;;;;6.00;102389.00;;;;5072421;28;20235;-68
2022/01/17 06:27:05;;;;;;;10.13;3.17;;;;;6.00;102378.00;;;;5061249;28;20363;-71
2022/01/17 06:29:52;;;;;;;10.10;3.17;;;;;6.00;102388.00;;;;5061013;28;20966;-72
2022/01/17 06:32:39;;;;;;;12.57;3.20;;;;;6.00;102395.00;;;;5065759;28;20224;-71
2022/01/17 06:35:26;;;;;;;10.00;5.20;;;;;6.20;102377.00;;;;5065771;28;20236;-72
2022/01/17 06:38:12;;;;;;;11.40;3.30;;;;;6.10;102378.00;;;;5065757;28;20732;-72
2022/01/17 06:40:58;;;;;;;6.63;2.47;;;;;6.00;102371.00;;;;5059439;28;20228;-71
2022/01/17 06:43:46;;;;;;;7.00;2.43;;;;;6.00;102342.00;;;;5058713;28;20603;-71
2022/01/17 06:46:32;;;;;;;8.27;2.87;;;;;6.00;102342.00;;;;5065702;28;20239;-71
2022/01/17 06:49:19;;;;;;;10.27;2.47;;;;;6.00;102338.00;;;;5055773;28;20611;-75
2022/01/17 06:52:06;;;;;;;7.87;2.93;;;;;6.00;102327.00;;;;5060336;28;20237;-70
2022/01/17 06:54:52;;;;;;;8.17;2.40;;;;;6.00;102340.00;;;;5061404;28;20231;-69
2022/01/17 06:57:39;;;;;;;8.53;2.70;;;;;6.00;102350.00;;;;5065791;28;20234;-71
2022/01/17 07:00:25;;;;;;;13.50;3.40;;;;;5.90;102357.00;;;;5058943;28;20361;-71
2022/01/17 07:03:12;;;;;;;9.40;2.53;;;;;6.10;102384.00;;;;5071382;28;20231;-69
2022/01/17 07:06:00;;;;;;;8.93;2.70;;;;;6.10;102369.00;;;;5059305;28;20608;-72
2022/01/17 07:08:46;;;;;;;8.93;2.60;;;;;6.10;102384.00;;;;5064898;28;20236;-71
2022/01/17 07:11:38;;;;;;;8.87;2.60;;;;;6.00;102433.00;;;;5064998;28;20310;-71
2022/01/17 07:14:24;;;;;;;7.53;2.93;;;;;6.00;102419.00;;;;5056958;28;20383;-71
2022/01/17 07:17:11;;;;;;;5.00;2.37;;;;;6.00;102400.00;;;;5050940;28;20275;-71
2022/01/17 07:19:57;;;;;;;12.03;2.40;;;;;5.90;102386.00;;;;5069997;28;20222;-71
2022/01/17 07:22:45;;;;;;;11.53;2.67;;;;;6.00;102373.00;;;;5070330;28;20590;-70
2022/01/17 07:25:31;;;;;;;7.20;2.60;;;;;6.00;102371.00;;;;5065089;28;20235;-69
2022/01/17 07:28:18;;;;;;;13.07;4.87;;;;;6.10;102388.00;;;;5065051;28;20302;-73
2022/01/17 07:31:05;;;;;;;9.53;3.77;;;;;6.20;102383.00;;;;5059643;28;20335;-71
2022/01/17 07:33:51;;;;;;;14.47;3.90;;;;;6.10;102413.00;;;;5065746;28;20223;-70
2022/01/17 07:36:47;;;;;;;14.07;3.97;;;;;6.10;102404.00;;;;5063917;28;20223;-73
2022/01/17 07:39:36;;;;;;;16.50;4.20;;;;;6.20;102405.00;;;;5065488;28;20227;-73
2022/01/17 07:42:23;;;;;;;12.27;4.90;;;;;6.30;102404.00;;;;5062892;28;20244;-71
2022/01/17 07:45:13;;;;;;;15.93;5.27;;;;;6.30;102404.00;;;;5068368;28;20227;-72
2022/01/17 07:48:22;;;;;;;11.83;5.30;;;;;6.10;102409.00;;;;5059531;28;20248;-72
2022/01/17 07:51:08;;;;;;;14.93;6.20;;;;;6.30;102415.00;;;;5060140;28;20270;-71
2022/01/17 07:53:56;;;;;;;14.90;6.47;;;;;6.20;102407.00;;;;5059077;28;20239;-70
2022/01/17 07:56:45;;;;;;;15.90;6.73;;;;;6.30;102410.00;;;;5063362;28;20370;-71
2022/01/17 07:59:31;;;;;;;18.57;7.27;;;;;6.40;102408.00;;;;5065703;28;20240;-71
2022/01/17 08:02:18;;;;;;;14.40;6.90;;;;;6.40;102408.00;;;;5062575;28;20236;-73
2022/01/17 08:05:07;;;;;;;17.87;7.67;;;;;6.40;102410.00;;;;5065298;28;20734;-73
2022/01/17 08:07:54;;;;;;;16.20;7.70;;;;;6.40;102435.00;;;;5059588;28;20710;-69
2022/01/17 08:10:40;;;;;;;16.50;7.80;;;;;6.40;102447.00;;;;5068464;28;20640;-71
2022/01/17 08:13:28;;;;;;;19.47;8.73;;;;;6.40;102441.00;;;;5063009;28;20360;-70
2022/01/17 08:16:14;;;;;;;20.20;8.40;;;;;6.60;102457.00;;;;5065922;28;20263;-71
2022/01/17 08:19:01;;;;;;;29.67;10.23;;;;;6.60;102465.00;;;;5062608;28;20224;-72
2022/01/17 08:21:48;;;;;;;17.63;9.57;;;;;6.60;102464.00;;;;5067680;28;20227;-71
2022/01/17 08:24:36;;;;;;;17.40;9.30;;;;;6.60;102479.00;;;;5067974;28;20281;-71
2022/01/17 08:27:22;;;;;;;21.63;10.83;;;;;6.50;102463.00;;;;5068218;28;20299;-74
2022/01/17 08:30:12;;;;;;;23.93;10.40;;;;;6.60;102468.00;;;;5067957;28;20252;-69
2022/01/17 08:33:18;;;;;;;28.77;10.70;;;;;6.70;102465.00;;;;5063377;28;20934;-69
2022/01/17 08:36:07;;;;;;;20.70;9.90;;;;;6.70;102455.00;;;;5077930;28;20308;-71
2022/01/17 08:39:04;;;;;;;24.50;11.40;;;;;6.70;102450.00;;;;5062592;28;20228;-72
2022/01/17 08:41:50;;;;;;;25.83;11.60;;;;;6.50;102433.00;;;;5063759;28;20231;-70
2022/01/17 08:44:37;;;;;;;26.97;12.73;;;;;6.50;102435.00;;;;5068132;28;20224;-70
2022/01/17 08:47:24;;;;;;;29.97;12.80;;;;;6.50;102421.00;;;;5067790;28;20259;-70
2022/01/17 08:50:10;;;;;;;29.23;13.23;;;;;6.50;102429.00;;;;5065084;28;20243;-71
2022/01/17 08:52:57;;;;;;;26.13;13.60;;;;;6.70;102428.00;;;;5062774;28;20351;-70
2022/01/17 08:55:44;;;;;;;29.00;13.03;;;;;6.70;102437.00;;;;5059945;28;20325;-69
2022/01/17 08:58:31;;;;;;;19.57;11.83;;;;;6.60;102450.00;;;;5066554;28;20688;-73
2022/01/17 09:01:17;;;;;;;28.10;13.23;;;;;6.60;102477.00;;;;5061222;28;20234;-72
2022/01/17 09:04:05;;;;;;;29.23;13.47;;;;;6.70;102458.00;;;;5062667;28;20340;-71
2022/01/17 09:06:51;;;;;;;30.93;13.43;;;;;6.70;102463.00;;;;5063762;28;20224;-71
2022/01/17 09:09:38;;;;;;;31.50;14.00;;;;;6.70;102468.00;;;;5067907;28;20366;-72
2022/01/17 09:12:25;;;;;;;33.93;13.57;;;;;6.70;102471.00;;;;5066698;28;20235;-72
2022/01/17 09:15:11;;;;;;;28.07;13.13;;;;;6.80;102475.00;;;;5065292;28;20239;-73
2022/01/17 09:17:57;;;;;;;31.83;13.90;;;;;6.80;102485.00;;;;5059996;28;20228;-70
2022/01/17 09:20:45;;;;;;;25.97;13.00;;;;;6.80;102481.00;;;;5063436;28;20305;-72
2022/01/17 09:23:31;;;;;;;30.03;14.37;;;;;6.70;102462.00;;;;5066904;28;20232;-71
2022/01/17 09:26:18;;;;;;;32.73;14.03;;;;;6.70;102479.00;;;;5063689;28;20599;-73
2022/01/17 09:29:05;;;;;;;31.97;14.37;;;;;6.70;102473.00;;;;5062146;28;20315;-71
2022/01/17 09:31:51;;;;;;;29.07;14.77;;;;;6.70;102459.00;;;;5059505;28;20355;-71
2022/01/17 09:34:37;;;;;;;30.60;14.83;;;;;6.60;102475.00;;;;5066765;28;20224;-73
2022/01/17 09:37:25;;;;;;;27.17;13.67;;;;;6.70;102454.00;;;;5066530;28;21044;-70
2022/01/17 09:40:12;;;;;;;35.00;15.07;;;;;6.70;102487.00;;;;5062641;28;20223;-72
2022/01/17 09:42:59;;;;;;;29.30;13.93;;;;;6.70;102502.00;;;;5063374;28;20805;-72
2022/01/17 09:45:45;;;;;;;26.00;14.20;;;;;6.70;102505.00;;;;5066648;28;20746;-70
2022/01/17 09:48:36;;;;;;;28.03;14.13;;;;;6.80;102514.00;;;;5062807;28;20228;-71
2022/01/17 09:51:38;;;;;;;34.00;14.37;;;;;6.80;102513.00;;;;5060757;28;20240;-72
2022/01/17 09:54:29;;;;;;;28.40;13.97;;;;;6.70;102534.00;;;;5060652;28;20772;-72
2022/01/17 09:57:16;;;;;;;33.30;14.30;;;;;6.70;102535.00;;;;5059633;28;20364;-72
2022/01/17 10:00:04;;;;;;;32.33;14.77;;;;;6.70;102519.00;;;;5075160;28;20622;-74
2022/01/17 10:02:51;;;;;;;38.63;15.43;;;;;6.70;102531.00;;;;5058897;28;20239;-72
2022/01/17 10:05:38;;;;;;;33.97;14.23;;;;;6.70;102523.00;;;;5063721;28;20228;-71
2022/01/17 10:08:25;;;;;;;26.90;13.40;;;;;6.70;102541.00;;;;5061672;28;20236;-71
2022/01/17 10:11:15;;;;;;;35.60;14.50;;;;;6.70;102547.00;;;;5073239;28;20229;-70
2022/01/17 10:14:01;;;;;;;27.43;13.17;;;;;7.00;102538.00;;;;5060136;28;20219;-71
2022/01/17 10:16:48;;;;;;;29.43;13.23;;;;;6.90;102552.00;;;;5056866;28;20232;-70
2022/01/17 10:19:34;;;;;;;31.47;13.93;;;;;6.80;102559.00;;;;5051509;28;20363;-74
2022/01/17 10:22:31;;;;;;;28.73;12.83;;;;;6.90;102557.00;;;;5060726;28;20258;-72
2022/01/17 10:25:27;;;;;;;28.93;13.80;;;;;6.80;102524.00;;;;5069118;28;20238;-73
2022/01/17 10:29:00;;;;;;;29.67;13.07;;;;;6.90;102541.00;;;;5061073;28;20680;-73
2022/01/17 10:34:56;;;;;;;29.40;12.43;;;;;6.90;102532.00;;;;5064952;28;20274;-72
2022/01/17 10:37:56;;;;;;;25.93;12.90;;;;;7.00;102518.00;;;;5074232;28;20714;-71
2022/01/17 10:40:45;;;;;;;32.97;13.43;;;;;6.90;102513.00;;;;5065323;28;20333;-72
2022/01/17 10:43:35;;;;;;;27.00;12.40;;;;;6.90;102517.00;;;;5055492;28;20219;-71
2022/01/17 10:46:23;;;;;;;31.17;13.63;;;;;7.00;102505.00;;;;5053567;28;20229;-71
2022/01/17 10:49:10;;;;;;;35.87;13.07;;;;;7.10;102522.00;;;;5054942;28;20224;-71
2022/01/17 10:51:59;;;;;;;27.30;11.37;;;;;7.20;102523.00;;;;5055773;28;20228;-73
2022/01/17 10:54:48;;;;;;;26.77;11.73;;;;;7.20;102509.00;;;;5071492;28;20289;-70
2022/01/17 10:57:35;;;;;;;31.17;11.33;;;;;7.00;102520.00;;;;5064405;28;20244;-70
2022/01/17 11:00:25;;;;;;;28.60;12.30;;;;;6.90;102523.00;;;;5064384;28;20235;-69
2022/01/17 11:03:13;;;;;;;29.87;12.47;;;;;7.10;102549.00;;;;5061782;28;20236;-72
2022/01/17 11:06:03;;;;;;;38.80;12.70;;;;;7.10;102566.00;;;;5060401;28;20720;-70
2022/01/17 11:08:51;;;;;;;30.17;12.53;;;;;7.20;102557.00;;;;5067906;28;20589;-71
2022/01/17 11:11:39;;;;;;;28.13;11.90;;;;;7.20;102572.00;;;;5066373;28;20284;-74
2022/01/17 11:14:26;;;;;;;33.43;11.97;;;;;7.30;102560.00;;;;5091508;28;20239;-75
2022/01/17 11:17:25;;;;;;;32.93;11.93;;;;;7.30;102581.00;;;;5092579;28;20246;-76
2022/01/17 11:20:12;;;;;;;25.50;11.57;;;;;7.10;102570.00;;;;5085524;28;20232;-75
2022/01/17 11:23:00;;;;;;;33.00;12.73;;;;;7.30;102552.00;;;;5091486;28;20236;-75
2022/01/17 11:25:52;;;;;;;31.13;12.70;;;;;7.20;102551.00;;;;5087533;28;20235;-73
2022/01/17 11:28:39;;;;;;;31.23;11.80;;;;;7.20;102555.00;;;;5094482;28;20238;-76
2022/01/17 11:31:26;;;;;;;35.33;12.00;;;;;7.30;102557.00;;;;5094469;28;20243;-75
2022/01/17 11:34:14;;;;;;;34.47;11.47;;;;;7.10;102550.00;;;;5095717;28;20240;-75
2022/01/17 11:37:01;;;;;;;22.30;12.07;;;;;7.20;102547.00;;;;5089238;28;20239;-75
2022/01/17 11:39:50;;;;;;;29.03;11.43;;;;;7.10;102551.00;;;;5076221;28;20752;-70
2022/01/17 11:42:44;;;;;;;26.73;10.70;;;;;7.30;102539.00;;;;5067809;28;20235;-71
2022/01/17 11:45:41;;;;;;;28.70;11.03;;;;;7.20;102537.00;;;;5069373;28;20274;-71
2022/01/17 11:48:29;;;;;;;25.37;11.00;;;;;7.30;102544.00;;;;5066661;28;20530;-72
2022/01/17 11:51:17;;;;;;;30.90;11.90;;;;;7.20;102548.00;;;;5068789;28;20240;-71
2022/01/17 11:54:12;;;;;;;32.10;11.20;;;;;7.20;102556.00;;;;5066271;28;20228;-73
2022/01/17 11:57:02;;;;;;;30.10;10.47;;;;;7.30;102552.00;;;;5063164;28;20235;-73
2022/01/17 11:59:49;;;;;;;30.80;10.73;;;;;7.30;102552.00;;;;5068814;28;20235;-74
2022/01/17 12:02:37;;;;;;;26.20;10.63;;;;;7.40;102548.00;;;;5068986;28;20239;-73
2022/01/17 12:05:44;;;;;;;24.97;10.43;;;;;7.40;102553.00;;;;5068569;28;20228;-71
2022/01/17 12:08:32;;;;;;;28.13;10.80;;;;;7.20;102551.00;;;;5067143;28;20293;-73
2022/01/17 12:11:28;;;;;;;28.67;10.87;;;;;7.30;102550.00;;;;5056802;28;20760;-72
2022/01/17 12:14:29;;;;;;;35.53;11.17;;;;;7.40;102546.00;;;;5068922;28;20239;-72
2022/01/17 12:17:31;;;;;;;29.07;10.03;;;;;7.40;102528.00;;;;5064375;28;20240;-67
2022/01/17 12:20:19;;;;;;;25.00;10.97;;;;;7.30;102516.00;;;;5058208;28;20298;-70
2022/01/17 12:23:24;;;;;;;30.73;10.13;;;;;7.30;102522.00;;;;5059017;28;20819;-71
2022/01/17 12:26:30;;;;;;;31.33;10.00;;;;;7.30;102548.00;;;;5064427;28;20239;-71
2022/01/17 12:29:36;;;;;;;28.17;10.57;;;;;7.30;102556.00;;;;5058532;28;20718;-70
2022/01/17 12:32:51;;;;;;;33.17;10.53;;;;;7.50;102559.00;;;;5042018;28;20711;-71
2022/01/17 12:35:46;;;;;;;32.70;10.20;;;;;7.50;102554.00;;;;5056644;28;20247;-71
2022/01/17 12:38:35;;;;;;;24.33;10.57;;;;;7.40;102564.00;;;;5068083;28;20896;-71
2022/01/17 12:41:34;;;;;;;29.07;10.00;;;;;7.40;102568.00;;;;5069527;28;20610;-71
2022/01/17 12:44:22;;;;;;;30.67;9.70;;;;;7.50;102571.00;;;;5068494;28;20235;-73
2022/01/17 12:47:08;;;;;;;28.80;10.50;;;;;7.60;102556.00;;;;5069625;28;20232;-73
2022/01/17 12:50:14;;;;;;;19.73;9.60;;;;;7.50;102542.00;;;;5065046;28;20628;-70
2022/01/17 12:53:03;;;;;;;25.37;10.03;;;;;7.50;102549.00;;;;5054687;28;20233;-73
2022/01/17 12:55:51;;;;;;;22.63;9.00;;;;;7.50;102555.00;;;;5050163;28;21022;-74
2022/01/17 12:58:40;;;;;;;19.33;8.73;;;;;7.60;102529.00;;;;5071815;28;20316;-73
2022/01/17 13:01:26;;;;;;;32.43;8.60;;;;;7.60;102537.00;;;;5073826;28;20240;-74
2022/01/17 13:04:14;;;;;;;25.00;8.90;;;;;7.60;102530.00;;;;5063484;28;20725;-73
2022/01/17 13:07:01;;;;;;;28.73;8.73;;;;;7.60;102536.00;;;;5064344;28;20721;-71
2022/01/17 13:09:47;;;;;;;27.53;8.07;;;;;7.70;102541.00;;;;5059373;28;20610;-74
2022/01/17 13:12:33;;;;;;;34.23;11.80;;;;;7.90;102539.00;;;;5065415;28;20247;-74
2022/01/17 13:15:21;;;;;;;39.73;11.77;;;;;7.90;102531.00;;;;5066782;28;20322;-74
2022/01/17 13:18:08;;;;;;;25.83;8.60;;;;;8.10;102528.00;;;;5058788;28;20306;-72
2022/01/17 13:20:54;;;;;;;26.83;9.13;;;;;8.10;102534.00;;;;5053901;28;20252;-72
2022/01/17 13:23:47;;;;;;;26.03;8.50;;;;;8.20;102525.00;;;;5069647;28;20227;-71
2022/01/17 13:26:38;;;;;;;33.53;8.07;;;;;8.30;102536.00;;;;5067254;28;20357;-72
2022/01/17 13:29:28;;;;;;;28.20;8.20;;;;;8.20;102519.00;;;;5066393;28;20236;-71
2022/01/17 13:32:15;;;;;;;33.30;7.73;;;;;8.20;102503.00;;;;5065969;28;20602;-71
2022/01/17 13:35:11;;;;;;;29.93;7.60;;;;;8.10;102521.00;;;;5061489;28;20227;-70
2022/01/17 13:38:20;;;;;;;20.00;6.93;;;;;8.00;102519.00;;;;5062702;28;20697;-69
2022/01/17 13:41:06;;;;;;;21.47;6.83;;;;;8.00;102526.00;;;;5062684;28;20240;-68
2022/01/17 13:43:52;;;;;;;23.70;8.07;;;;;8.00;102531.00;;;;5051419;28;20227;-71
2022/01/17 13:46:53;;;;;;;22.47;7.10;;;;;8.10;102555.00;;;;5056797;28;20230;-70
2022/01/17 13:49:43;;;;;;;20.43;7.27;;;;;8.00;102580.00;;;;5055986;28;20220;-72
2022/01/17 13:52:29;;;;;;;21.57;6.70;;;;;8.10;102592.00;;;;5063165;28;20330;-73
2022/01/17 13:55:34;;;;;;;30.03;7.47;;;;;7.90;102585.00;;;;5056734;28;20243;-73
2022/01/17 13:58:21;;;;;;;24.50;6.57;;;;;8.00;102580.00;;;;5056806;28;20228;-72
2022/01/17 14:01:10;;;;;;;21.47;6.27;;;;;7.90;102561.00;;;;5072953;28;20230;-73